sensor_id;sensor_type;location;lat;lon;timestamp;temperature;humidity
22194;DHT22;11262;50.308;9.270;2023-01-10T00:00:11;4.30;99.90
22194;DHT22;11262;50.308;9.270;2023-01-10T00:02:37;4.20;99.90
22194;DHT22;11262;50.308;9.270;2023-01-10T00:05:03;4.30;99.90
22194;DHT22;11262;50.308;9.270;2023-01-10T00:07:29;4.30;99.90
22194;DHT22;11262;50.308;9.270;2023-01-10T00:09:54;4.30;99.90
22194;DHT22;11262;50.308;9.270;2023-01-10T00:12:20;4.30;99.90
22194;DHT22;11262;50.308;9.270;2023-01-10T00:15:05;4.30;99.90
22194;DHT22;11262;50.308;9.270;2023-01-10T00:17:30;4.30;99.90
22194;DHT22;11262;50.308;9.270;2023-01-10T00:19:56;4.30;99.90
22194;DHT22;11262;50.308;9.270;2023-01-10T00:22:22;4.30;99.90
22194;DHT22;11262;50.308;9.270;2023-01-10T00:24:49;4.30;99.90
22194;DHT22;11262;50.308;9.270;2023-01-10T00:27:15;4.30;99.90
22194;DHT22;11262;50.308;9.270;2023-01-10T00:29:48;4.30;99.90
22194;DHT22;11262;50.308;9.270;2023-01-10T00:32:15;4.30;99.90
22194;DHT22;11262;50.308;9.270;2023-01-10T00:34:41;4.30;99.90
22194;DHT22;11262;50.308;9.270;2023-01-10T00:37:06;4.30;99.90
22194;DHT22;11262;50.308;9.270;2023-01-10T00:39:32;4.30;99.90
22194;DHT22;11262;50.308;9.270;2023-01-10T00:41:58;4.30;99.90
22194;DHT22;11262;50.308;9.270;2023-01-10T00:44:42;4.30;99.90
22194;DHT22;11262;50.308;9.270;2023-01-10T00:47:09;4.30;99.90
22194;DHT22;11262;50.308;9.270;2023-01-10T00:49:34;4.30;99.90
22194;DHT22;11262;50.308;9.270;2023-01-10T00:52:00;4.30;99.90
22194;DHT22;11262;50.308;9.270;2023-01-10T00:54:25;4.30;99.90
22194;DHT22;11262;50.308;9.270;2023-01-10T00:56:51;4.30;99.90
22194;DHT22;11262;50.308;9.270;2023-01-10T00:59:16;4.30;99.90
22194;DHT22;11262;50.308;9.270;2023-01-10T01:01:42;4.30;99.90
22194;DHT22;11262;50.308;9.270;2023-01-10T01:04:07;4.30;99.90
22194;DHT22;11262;50.308;9.270;2023-01-10T01:06:33;4.30;99.90
22194;DHT22;11262;50.308;9.270;2023-01-10T01:08:59;4.30;99.90
22194;DHT22;11262;50.308;9.270;2023-01-10T01:11:25;4.30;99.90
22194;DHT22;11262;50.308;9.270;2023-01-10T01:13:50;4.30;99.90
22194;DHT22;11262;50.308;9.270;2023-01-10T01:16:16;4.30;99.90
22194;DHT22;11262;50.308;9.270;2023-01-10T01:18:42;4.30;99.90
22194;DHT22;11262;50.308;9.270;2023-01-10T01:21:08;4.30;99.90
22194;DHT22;11262;50.308;9.270;2023-01-10T01:23:34;4.30;99.90
22194;DHT22;11262;50.308;9.270;2023-01-10T01:26:00;4.40;99.90
22194;DHT22;11262;50.308;9.270;2023-01-10T01:28:26;4.40;99.90
22194;DHT22;11262;50.308;9.270;2023-01-10T01:30:52;4.40;99.90
22194;DHT22;11262;50.308;9.270;2023-01-10T01:33:18;4.40;99.90
22194;DHT22;11262;50.308;9.270;2023-01-10T01:35:45;4.40;99.90
22194;DHT22;11262;50.308;9.270;2023-01-10T01:38:12;4.40;99.90
22194;DHT22;11262;50.308;9.270;2023-01-10T01:40:38;4.40;99.90
22194;DHT22;11262;50.308;9.270;2023-01-10T01:43:22;4.40;99.90
22194;DHT22;11262;50.308;9.270;2023-01-10T01:45:48;4.40;99.90
22194;DHT22;11262;50.308;9.270;2023-01-10T01:48:16;4.40;99.90
22194;DHT22;11262;50.308;9.270;2023-01-10T01:51:03;4.40;99.90
22194;DHT22;11262;50.308;9.270;2023-01-10T01:53:47;4.40;99.90
22194;DHT22;11262;50.308;9.270;2023-01-10T01:56:25;4.40;99.90
22194;DHT22;11262;50.308;9.270;2023-01-10T01:58:57;4.40;99.90
22194;DHT22;11262;50.308;9.270;2023-01-10T02:01:25;4.40;99.90
22194;DHT22;11262;50.308;9.270;2023-01-10T02:04:07;4.40;99.90
22194;DHT22;11262;50.308;9.270;2023-01-10T02:06:34;4.40;99.90
22194;DHT22;11262;50.308;9.270;2023-01-10T02:09:29;4.40;99.90
22194;DHT22;11262;50.308;9.270;2023-01-10T02:11:57;4.40;99.90
22194;DHT22;11262;50.308;9.270;2023-01-10T02:14:24;4.30;99.90
22194;DHT22;11262;50.308;9.270;2023-01-10T02:16:51;4.30;99.90
22194;DHT22;11262;50.308;9.270;2023-01-10T02:32:56;4.40;99.90
22194;DHT22;11262;50.308;9.270;2023-01-10T02:35:48;4.40;99.90
22194;DHT22;11262;50.308;9.270;2023-01-10T02:38:42;4.40;99.90
22194;DHT22;11262;50.308;9.270;2023-01-10T02:43:59;4.40;99.90
22194;DHT22;11262;50.308;9.270;2023-01-10T02:46:29;4.30;99.90
22194;DHT22;11262;50.308;9.270;2023-01-10T02:48:56;4.40;99.90
22194;DHT22;11262;50.308;9.270;2023-01-10T02:51:27;4.40;99.90
22194;DHT22;11262;50.308;9.270;2023-01-10T02:53:58;4.40;99.90
22194;DHT22;11262;50.308;9.270;2023-01-10T02:59:41;4.40;99.90
22194;DHT22;11262;50.308;9.270;2023-01-10T03:05:02;4.40;99.90
22194;DHT22;11262;50.308;9.270;2023-01-10T03:07:34;4.40;99.90
22194;DHT22;11262;50.308;9.270;2023-01-10T03:10:31;4.50;99.90
22194;DHT22;11262;50.308;9.270;2023-01-10T03:13:05;4.40;99.90
22194;DHT22;11262;50.308;9.270;2023-01-10T03:15:36;4.50;99.90
22194;DHT22;11262;50.308;9.270;2023-01-10T03:18:09;4.50;99.90
22194;DHT22;11262;50.308;9.270;2023-01-10T03:20:38;4.50;99.90
22194;DHT22;11262;50.308;9.270;2023-01-10T03:23:07;4.50;99.90
22194;DHT22;11262;50.308;9.270;2023-01-10T03:25:36;4.50;99.90
22194;DHT22;11262;50.308;9.270;2023-01-10T03:33:10;4.40;99.90
22194;DHT22;11262;50.308;9.270;2023-01-10T03:36:10;4.40;99.90
22194;DHT22;11262;50.308;9.270;2023-01-10T03:38:45;4.40;99.90
22194;DHT22;11262;50.308;9.270;2023-01-10T03:44:22;4.40;99.90
22194;DHT22;11262;50.308;9.270;2023-01-10T03:47:37;4.40;99.90
22194;DHT22;11262;50.308;9.270;2023-01-10T03:50:09;4.50;99.90
22194;DHT22;11262;50.308;9.270;2023-01-10T03:52:36;4.50;99.90
22194;DHT22;11262;50.308;9.270;2023-01-10T03:55:05;4.40;99.90
22194;DHT22;11262;50.308;9.270;2023-01-10T03:57:31;4.40;99.90
22194;DHT22;11262;50.308;9.270;2023-01-10T03:59:58;4.40;99.90
22194;DHT22;11262;50.308;9.270;2023-01-10T04:02:28;4.40;99.90
22194;DHT22;11262;50.308;9.270;2023-01-10T04:04:55;4.40;99.90
22194;DHT22;11262;50.308;9.270;2023-01-10T04:07:21;4.40;99.90
22194;DHT22;11262;50.308;9.270;2023-01-10T04:09:46;4.40;99.90
22194;DHT22;11262;50.308;9.270;2023-01-10T04:12:12;4.40;99.90
22194;DHT22;11262;50.308;9.270;2023-01-10T04:14:38;4.30;99.90
22194;DHT22;11262;50.308;9.270;2023-01-10T04:17:03;4.30;99.90
22194;DHT22;11262;50.308;9.270;2023-01-10T04:19:29;4.30;99.90
22194;DHT22;11262;50.308;9.270;2023-01-10T04:21:55;4.30;99.90
22194;DHT22;11262;50.308;9.270;2023-01-10T04:24:21;4.30;99.90
22194;DHT22;11262;50.308;9.270;2023-01-10T04:26:48;4.30;99.90
22194;DHT22;11262;50.308;9.270;2023-01-10T04:29:13;4.30;99.90
22194;DHT22;11262;50.308;9.270;2023-01-10T04:31:39;4.30;99.90
22194;DHT22;11262;50.308;9.270;2023-01-10T04:34:06;4.30;99.90
22194;DHT22;11262;50.308;9.270;2023-01-10T04:36:32;4.20;99.90
22194;DHT22;11262;50.308;9.270;2023-01-10T04:38:58;4.30;99.90
22194;DHT22;11262;50.308;9.270;2023-01-10T04:41:23;4.30;99.90
22194;DHT22;11262;50.308;9.270;2023-01-10T04:43:49;4.30;99.90
22194;DHT22;11262;50.308;9.270;2023-01-10T04:46:15;4.30;99.90
22194;DHT22;11262;50.308;9.270;2023-01-10T04:48:41;4.30;99.90
22194;DHT22;11262;50.308;9.270;2023-01-10T04:51:06;4.30;99.90
22194;DHT22;11262;50.308;9.270;2023-01-10T04:53:32;4.30;99.90
22194;DHT22;11262;50.308;9.270;2023-01-10T04:56:05;4.30;99.90
22194;DHT22;11262;50.308;9.270;2023-01-10T04:58:33;4.30;99.90
22194;DHT22;11262;50.308;9.270;2023-01-10T05:00:59;4.30;99.90
22194;DHT22;11262;50.308;9.270;2023-01-10T05:03:24;4.30;99.90
22194;DHT22;11262;50.308;9.270;2023-01-10T05:05:50;4.30;99.90
22194;DHT22;11262;50.308;9.270;2023-01-10T05:08:15;4.30;99.90
22194;DHT22;11262;50.308;9.270;2023-01-10T05:10:41;4.30;99.90
22194;DHT22;11262;50.308;9.270;2023-01-10T05:13:07;4.30;99.90
22194;DHT22;11262;50.308;9.270;2023-01-10T05:15:32;4.30;99.90
22194;DHT22;11262;50.308;9.270;2023-01-10T05:17:58;4.30;99.90
22194;DHT22;11262;50.308;9.270;2023-01-10T05:20:24;4.30;99.90
22194;DHT22;11262;50.308;9.270;2023-01-10T05:22:50;4.30;99.90
22194;DHT22;11262;50.308;9.270;2023-01-10T05:25:16;4.30;99.90
22194;DHT22;11262;50.308;9.270;2023-01-10T05:27:41;4.30;99.90
22194;DHT22;11262;50.308;9.270;2023-01-10T05:30:10;4.30;99.90
22194;DHT22;11262;50.308;9.270;2023-01-10T05:32:36;4.20;99.90
22194;DHT22;11262;50.308;9.270;2023-01-10T05:35:02;4.20;99.90
22194;DHT22;11262;50.308;9.270;2023-01-10T05:37:27;4.10;99.90
22194;DHT22;11262;50.308;9.270;2023-01-10T05:39:53;4.10;99.90
22194;DHT22;11262;50.308;9.270;2023-01-10T05:42:18;4.10;99.90
22194;DHT22;11262;50.308;9.270;2023-01-10T05:44:44;4.00;99.90
22194;DHT22;11262;50.308;9.270;2023-01-10T05:47:10;4.00;99.90
22194;DHT22;11262;50.308;9.270;2023-01-10T05:49:35;4.00;99.90
22194;DHT22;11262;50.308;9.270;2023-01-10T05:52:01;4.00;99.90
22194;DHT22;11262;50.308;9.270;2023-01-10T05:54:26;4.00;99.90
22194;DHT22;11262;50.308;9.270;2023-01-10T05:56:54;4.00;99.90
22194;DHT22;11262;50.308;9.270;2023-01-10T05:59:19;4.00;99.90
22194;DHT22;11262;50.308;9.270;2023-01-10T06:01:45;4.00;99.90
22194;DHT22;11262;50.308;9.270;2023-01-10T06:04:11;3.90;99.90
22194;DHT22;11262;50.308;9.270;2023-01-10T06:06:36;3.90;99.90
22194;DHT22;11262;50.308;9.270;2023-01-10T06:09:02;3.90;99.90
22194;DHT22;11262;50.308;9.270;2023-01-10T06:11:27;3.90;99.90
22194;DHT22;11262;50.308;9.270;2023-01-10T06:13:57;3.80;99.90
22194;DHT22;11262;50.308;9.270;2023-01-10T06:16:23;3.80;99.90
22194;DHT22;11262;50.308;9.270;2023-01-10T06:18:49;3.80;99.90
22194;DHT22;11262;50.308;9.270;2023-01-10T06:21:15;3.70;99.90
22194;DHT22;11262;50.308;9.270;2023-01-10T06:23:41;3.70;99.90
22194;DHT22;11262;50.308;9.270;2023-01-10T06:26:06;3.60;99.90
22194;DHT22;11262;50.308;9.270;2023-01-10T06:28:32;3.60;99.90
22194;DHT22;11262;50.308;9.270;2023-01-10T06:30:57;3.60;99.90
22194;DHT22;11262;50.308;9.270;2023-01-10T06:33:23;3.50;99.90
22194;DHT22;11262;50.308;9.270;2023-01-10T06:35:49;3.60;99.90
22194;DHT22;11262;50.308;9.270;2023-01-10T06:38:14;3.60;99.90
22194;DHT22;11262;50.308;9.270;2023-01-10T06:40:40;3.50;99.90
22194;DHT22;11262;50.308;9.270;2023-01-10T06:43:06;3.50;99.90
22194;DHT22;11262;50.308;9.270;2023-01-10T06:45:32;3.50;99.90
22194;DHT22;11262;50.308;9.270;2023-01-10T06:47:57;3.50;99.90
22194;DHT22;11262;50.308;9.270;2023-01-10T06:50:24;3.50;99.90
22194;DHT22;11262;50.308;9.270;2023-01-10T06:52:57;3.40;99.90
22194;DHT22;11262;50.308;9.270;2023-01-10T06:55:23;3.50;99.90
22194;DHT22;11262;50.308;9.270;2023-01-10T06:57:53;3.50;99.90
22194;DHT22;11262;50.308;9.270;2023-01-10T07:00:19;3.40;99.90
22194;DHT22;11262;50.308;9.270;2023-01-10T07:02:44;3.50;99.90
22194;DHT22;11262;50.308;9.270;2023-01-10T07:05:10;3.40;99.90
22194;DHT22;11262;50.308;9.270;2023-01-10T07:07:35;3.50;99.90
22194;DHT22;11262;50.308;9.270;2023-01-10T07:10:01;3.50;99.90
22194;DHT22;11262;50.308;9.270;2023-01-10T07:12:27;3.50;99.90
22194;DHT22;11262;50.308;9.270;2023-01-10T07:14:53;3.50;99.90
22194;DHT22;11262;50.308;9.270;2023-01-10T07:17:18;3.50;99.90
22194;DHT22;11262;50.308;9.270;2023-01-10T07:19:44;3.50;99.90
22194;DHT22;11262;50.308;9.270;2023-01-10T07:22:10;3.50;99.90
22194;DHT22;11262;50.308;9.270;2023-01-10T07:24:36;3.40;99.90
22194;DHT22;11262;50.308;9.270;2023-01-10T07:27:02;3.50;99.90
22194;DHT22;11262;50.308;9.270;2023-01-10T07:29:27;3.40;99.90
22194;DHT22;11262;50.308;9.270;2023-01-10T07:31:53;3.40;99.90
22194;DHT22;11262;50.308;9.270;2023-01-10T07:34:18;3.40;99.90
22194;DHT22;11262;50.308;9.270;2023-01-10T07:36:44;3.30;99.90
22194;DHT22;11262;50.308;9.270;2023-01-10T07:39:10;3.30;99.90
22194;DHT22;11262;50.308;9.270;2023-01-10T07:41:35;3.30;99.90
22194;DHT22;11262;50.308;9.270;2023-01-10T07:44:01;3.30;99.90
22194;DHT22;11262;50.308;9.270;2023-01-10T07:46:26;3.30;99.90
22194;DHT22;11262;50.308;9.270;2023-01-10T07:48:52;3.30;99.90
22194;DHT22;11262;50.308;9.270;2023-01-10T07:51:18;3.30;99.90
22194;DHT22;11262;50.308;9.270;2023-01-10T07:53:43;3.30;99.90
22194;DHT22;11262;50.308;9.270;2023-01-10T07:56:09;3.30;99.90
22194;DHT22;11262;50.308;9.270;2023-01-10T07:58:34;3.40;99.90
22194;DHT22;11262;50.308;9.270;2023-01-10T08:01:04;3.40;99.90
22194;DHT22;11262;50.308;9.270;2023-01-10T08:03:29;3.50;99.90
22194;DHT22;11262;50.308;9.270;2023-01-10T08:06:05;3.50;99.90
22194;DHT22;11262;50.308;9.270;2023-01-10T08:08:32;3.60;99.90
22194;DHT22;11262;50.308;9.270;2023-01-10T08:10:59;3.60;99.90
22194;DHT22;11262;50.308;9.270;2023-01-10T08:13:27;3.60;99.90
22194;DHT22;11262;50.308;9.270;2023-01-10T08:15:52;3.70;99.90
22194;DHT22;11262;50.308;9.270;2023-01-10T08:18:19;3.70;99.90
22194;DHT22;11262;50.308;9.270;2023-01-10T08:20:48;3.70;99.90
22194;DHT22;11262;50.308;9.270;2023-01-10T08:23:14;3.70;99.90
22194;DHT22;11262;50.308;9.270;2023-01-10T08:25:40;3.80;99.90
22194;DHT22;11262;50.308;9.270;2023-01-10T08:28:05;3.70;99.90
22194;DHT22;11262;50.308;9.270;2023-01-10T08:30:31;3.80;99.90
22194;DHT22;11262;50.308;9.270;2023-01-10T08:32:57;3.70;99.90
22194;DHT22;11262;50.308;9.270;2023-01-10T08:35:22;3.70;99.90
22194;DHT22;11262;50.308;9.270;2023-01-10T08:37:48;3.80;99.90
22194;DHT22;11262;50.308;9.270;2023-01-10T08:40:13;3.80;99.90
22194;DHT22;11262;50.308;9.270;2023-01-10T08:42:39;3.80;99.90
22194;DHT22;11262;50.308;9.270;2023-01-10T08:45:06;3.90;99.90
22194;DHT22;11262;50.308;9.270;2023-01-10T08:47:31;3.90;99.90
22194;DHT22;11262;50.308;9.270;2023-01-10T08:49:57;3.90;99.90
22194;DHT22;11262;50.308;9.270;2023-01-10T08:52:23;3.90;99.90
22194;DHT22;11262;50.308;9.270;2023-01-10T08:54:48;4.00;99.90
22194;DHT22;11262;50.308;9.270;2023-01-10T08:57:14;4.00;99.90
22194;DHT22;11262;50.308;9.270;2023-01-10T08:59:40;4.00;99.90
22194;DHT22;11262;50.308;9.270;2023-01-10T09:02:05;4.10;99.90
22194;DHT22;11262;50.308;9.270;2023-01-10T09:04:32;4.10;99.90
22194;DHT22;11262;50.308;9.270;2023-01-10T09:06:58;4.10;99.90
22194;DHT22;11262;50.308;9.270;2023-01-10T09:09:24;4.10;99.90
22194;DHT22;11262;50.308;9.270;2023-01-10T09:11:49;4.20;99.90
22194;DHT22;11262;50.308;9.270;2023-01-10T09:14:15;4.20;99.90
22194;DHT22;11262;50.308;9.270;2023-01-10T09:16:41;4.20;99.90
22194;DHT22;11262;50.308;9.270;2023-01-10T09:19:06;4.20;99.90
22194;DHT22;11262;50.308;9.270;2023-01-10T09:21:32;4.20;99.90
22194;DHT22;11262;50.308;9.270;2023-01-10T09:23:58;4.20;99.90
22194;DHT22;11262;50.308;9.270;2023-01-10T09:26:23;4.30;99.90
22194;DHT22;11262;50.308;9.270;2023-01-10T09:28:49;4.30;99.90
22194;DHT22;11262;50.308;9.270;2023-01-10T09:31:15;4.30;99.90
22194;DHT22;11262;50.308;9.270;2023-01-10T09:33:41;4.30;99.90
22194;DHT22;11262;50.308;9.270;2023-01-10T09:36:08;4.30;99.90
22194;DHT22;11262;50.308;9.270;2023-01-10T09:38:35;4.30;99.90
22194;DHT22;11262;50.308;9.270;2023-01-10T09:44:04;4.30;99.90
22194;DHT22;11262;50.308;9.270;2023-01-10T09:46:51;4.30;99.90
22194;DHT22;11262;50.308;9.270;2023-01-10T09:52:32;4.30;99.90
22194;DHT22;11262;50.308;9.270;2023-01-10T09:55:15;4.40;99.90
22194;DHT22;11262;50.308;9.270;2023-01-10T09:57:42;4.40;99.90
22194;DHT22;11262;50.308;9.270;2023-01-10T10:00:13;4.40;99.90
22194;DHT22;11262;50.308;9.270;2023-01-10T10:02:42;4.40;99.90
22194;DHT22;11262;50.308;9.270;2023-01-10T10:05:15;4.40;99.90
22194;DHT22;11262;50.308;9.270;2023-01-10T10:07:43;4.40;99.90
22194;DHT22;11262;50.308;9.270;2023-01-10T10:10:21;4.40;99.90
22194;DHT22;11262;50.308;9.270;2023-01-10T10:18:58;4.40;99.90
22194;DHT22;11262;50.308;9.270;2023-01-10T10:21:48;4.50;99.90
22194;DHT22;11262;50.308;9.270;2023-01-10T10:24:38;4.50;99.90
22194;DHT22;11262;50.308;9.270;2023-01-10T10:29:56;4.60;99.90
22194;DHT22;11262;50.308;9.270;2023-01-10T10:32:34;4.50;99.90
22194;DHT22;11262;50.308;9.270;2023-01-10T10:35:17;4.60;99.90
22194;DHT22;11262;50.308;9.270;2023-01-10T10:37:51;4.60;99.90
22194;DHT22;11262;50.308;9.270;2023-01-10T10:42:47;4.60;99.90
22194;DHT22;11262;50.308;9.270;2023-01-10T10:47:48;4.70;99.90
22194;DHT22;11262;50.308;9.270;2023-01-10T10:50:34;4.80;99.90
22194;DHT22;11262;50.308;9.270;2023-01-10T10:53:05;4.80;99.90
22194;DHT22;11262;50.308;9.270;2023-01-10T10:55:34;4.80;99.90
22194;DHT22;11262;50.308;9.270;2023-01-10T10:58:02;4.80;99.90
22194;DHT22;11262;50.308;9.270;2023-01-10T11:00:29;4.90;99.90
22194;DHT22;11262;50.308;9.270;2023-01-10T11:05:37;5.10;99.90
22194;DHT22;11262;50.308;9.270;2023-01-10T11:08:06;5.30;99.90
22194;DHT22;11262;50.308;9.270;2023-01-10T11:10:43;5.40;99.90
22194;DHT22;11262;50.308;9.270;2023-01-10T11:13:20;5.50;99.90
22194;DHT22;11262;50.308;9.270;2023-01-10T11:15:50;5.60;99.90
22194;DHT22;11262;50.308;9.270;2023-01-10T11:18:23;5.60;99.90
22194;DHT22;11262;50.308;9.270;2023-01-10T11:23:48;5.60;99.90
22194;DHT22;11262;50.308;9.270;2023-01-10T11:26:27;5.60;99.90
22194;DHT22;11262;50.308;9.270;2023-01-10T11:29:13;5.60;99.90
22194;DHT22;11262;50.308;9.270;2023-01-10T11:31:40;5.50;99.90
22194;DHT22;11262;50.308;9.270;2023-01-10T11:34:36;5.60;99.90
22194;DHT22;11262;50.308;9.270;2023-01-10T11:37:03;5.50;99.90
22194;DHT22;11262;50.308;9.270;2023-01-10T11:39:30;5.60;99.90
22194;DHT22;11262;50.308;9.270;2023-01-10T11:41:56;5.60;99.90
22194;DHT22;11262;50.308;9.270;2023-01-10T11:44:28;5.50;99.90
22194;DHT22;11262;50.308;9.270;2023-01-10T11:46:58;5.50;99.90
22194;DHT22;11262;50.308;9.270;2023-01-10T11:49:31;5.50;99.90
22194;DHT22;11262;50.308;9.270;2023-01-10T11:52:03;5.40;99.90
22194;DHT22;11262;50.308;9.270;2023-01-10T11:54:30;5.40;99.90
22194;DHT22;11262;50.308;9.270;2023-01-10T11:57:13;5.40;99.90
22194;DHT22;11262;50.308;9.270;2023-01-10T11:59:39;5.40;99.90
22194;DHT22;11262;50.308;9.270;2023-01-10T12:02:21;5.30;99.90
22194;DHT22;11262;50.308;9.270;2023-01-10T12:04:48;5.30;99.90
22194;DHT22;11262;50.308;9.270;2023-01-10T12:07:15;5.30;99.90
22194;DHT22;11262;50.308;9.270;2023-01-10T12:09:57;5.30;99.90
22194;DHT22;11262;50.308;9.270;2023-01-10T12:12:28;5.30;99.90
22194;DHT22;11262;50.308;9.270;2023-01-10T12:14:58;5.30;99.90
22194;DHT22;11262;50.308;9.270;2023-01-10T12:17:34;5.30;99.90
22194;DHT22;11262;50.308;9.270;2023-01-10T12:20:01;5.30;99.90
22194;DHT22;11262;50.308;9.270;2023-01-10T12:22:39;5.30;99.90
22194;DHT22;11262;50.308;9.270;2023-01-10T12:27:43;5.30;99.90
22194;DHT22;11262;50.308;9.270;2023-01-10T12:32:52;5.30;99.90
22194;DHT22;11262;50.308;9.270;2023-01-10T12:35:35;5.30;99.90
22194;DHT22;11262;50.308;9.270;2023-01-10T12:38:02;5.30;99.90
22194;DHT22;11262;50.308;9.270;2023-01-10T12:53:46;5.70;99.90
22194;DHT22;11262;50.308;9.270;2023-01-10T12:56:14;5.60;99.90
22194;DHT22;11262;50.308;9.270;2023-01-10T12:58:43;5.60;99.90
22194;DHT22;11262;50.308;9.270;2023-01-10T13:01:23;5.60;99.90
22194;DHT22;11262;50.308;9.270;2023-01-10T13:04:01;5.60;99.90
22194;DHT22;11262;50.308;9.270;2023-01-10T13:06:36;5.60;99.90
22194;DHT22;11262;50.308;9.270;2023-01-10T13:09:26;5.70;99.90
22194;DHT22;11262;50.308;9.270;2023-01-10T13:12:04;5.70;99.90
22194;DHT22;11262;50.308;9.270;2023-01-10T13:14:40;5.70;99.90
22194;DHT22;11262;50.308;9.270;2023-01-10T13:22:41;5.60;99.90
22194;DHT22;11262;50.308;9.270;2023-01-10T13:25:19;5.60;99.90
22194;DHT22;11262;50.308;9.270;2023-01-10T13:27:45;5.60;99.90
22194;DHT22;11262;50.308;9.270;2023-01-10T13:30:31;5.60;99.90
22194;DHT22;11262;50.308;9.270;2023-01-10T13:33:02;5.60;99.90
22194;DHT22;11262;50.308;9.270;2023-01-10T13:35:37;5.60;99.90
22194;DHT22;11262;50.308;9.270;2023-01-10T13:38:04;5.60;99.90
22194;DHT22;11262;50.308;9.270;2023-01-10T13:40:30;5.60;99.90
22194;DHT22;11262;50.308;9.270;2023-01-10T13:48:44;5.60;99.90
22194;DHT22;11262;50.308;9.270;2023-01-10T13:51:28;5.50;99.90
22194;DHT22;11262;50.308;9.270;2023-01-10T13:56:36;5.50;99.90
22194;DHT22;11262;50.308;9.270;2023-01-10T13:59:09;5.50;99.90
22194;DHT22;11262;50.308;9.270;2023-01-10T14:01:54;5.50;99.90
22194;DHT22;11262;50.308;9.270;2023-01-10T14:04:54;5.50;99.90
22194;DHT22;11262;50.308;9.270;2023-01-10T14:07:47;5.50;99.90
22194;DHT22;11262;50.308;9.270;2023-01-10T14:10:28;5.50;99.90
22194;DHT22;11262;50.308;9.270;2023-01-10T14:13:01;5.50;99.90
22194;DHT22;11262;50.308;9.270;2023-01-10T14:15:43;5.50;99.90
22194;DHT22;11262;50.308;9.270;2023-01-10T14:20:57;5.50;99.90
22194;DHT22;11262;50.308;9.270;2023-01-10T14:23:29;5.40;99.90
22194;DHT22;11262;50.308;9.270;2023-01-10T14:25:58;5.50;99.90
22194;DHT22;11262;50.308;9.270;2023-01-10T14:28:29;5.40;99.90
22194;DHT22;11262;50.308;9.270;2023-01-10T14:31:07;5.40;99.90
22194;DHT22;11262;50.308;9.270;2023-01-10T14:33:36;5.40;99.90
22194;DHT22;11262;50.308;9.270;2023-01-10T14:36:25;5.40;99.90
22194;DHT22;11262;50.308;9.270;2023-01-10T14:38:57;5.40;99.90
22194;DHT22;11262;50.308;9.270;2023-01-10T14:41:34;5.40;99.90
22194;DHT22;11262;50.308;9.270;2023-01-10T14:44:21;5.30;99.90
22194;DHT22;11262;50.308;9.270;2023-01-10T14:46:49;5.30;99.90
22194;DHT22;11262;50.308;9.270;2023-01-10T14:51:50;5.30;99.90
22194;DHT22;11262;50.308;9.270;2023-01-10T14:54:22;5.30;99.90
22194;DHT22;11262;50.308;9.270;2023-01-10T14:56:51;5.30;99.90
22194;DHT22;11262;50.308;9.270;2023-01-10T14:59:44;5.30;99.90
22194;DHT22;11262;50.308;9.270;2023-01-10T15:02:20;5.30;99.90
22194;DHT22;11262;50.308;9.270;2023-01-10T15:04:57;5.30;99.90
22194;DHT22;11262;50.308;9.270;2023-01-10T15:07:25;5.30;99.90
22194;DHT22;11262;50.308;9.270;2023-01-10T15:09:53;5.20;99.90
22194;DHT22;11262;50.308;9.270;2023-01-10T15:12:23;5.20;99.90
22194;DHT22;11262;50.308;9.270;2023-01-10T15:14:58;5.20;99.90
22194;DHT22;11262;50.308;9.270;2023-01-10T15:17:25;5.20;99.90
22194;DHT22;11262;50.308;9.270;2023-01-10T15:19:52;5.20;99.90
22194;DHT22;11262;50.308;9.270;2023-01-10T15:24:57;5.20;99.90
22194;DHT22;11262;50.308;9.270;2023-01-10T15:27:31;5.20;99.90
22194;DHT22;11262;50.308;9.270;2023-01-10T15:30:03;5.10;99.90
22194;DHT22;11262;50.308;9.270;2023-01-10T15:32:36;5.10;99.90
22194;DHT22;11262;50.308;9.270;2023-01-10T15:35:11;5.10;99.90
22194;DHT22;11262;50.308;9.270;2023-01-10T15:37:38;5.10;99.90
22194;DHT22;11262;50.308;9.270;2023-01-10T15:40:37;5.10;99.90
22194;DHT22;11262;50.308;9.270;2023-01-10T15:43:24;5.10;99.90
22194;DHT22;11262;50.308;9.270;2023-01-10T15:45:54;5.10;99.90
22194;DHT22;11262;50.308;9.270;2023-01-10T15:48:39;5.10;99.90
22194;DHT22;11262;50.308;9.270;2023-01-10T15:51:25;5.10;99.90
22194;DHT22;11262;50.308;9.270;2023-01-10T15:56:57;5.10;99.90
22194;DHT22;11262;50.308;9.270;2023-01-10T15:59:36;5.10;99.90
22194;DHT22;11262;50.308;9.270;2023-01-10T16:04:51;5.00;99.90
22194;DHT22;11262;50.308;9.270;2023-01-10T16:07:32;5.00;99.90
22194;DHT22;11262;50.308;9.270;2023-01-10T16:10:07;5.00;99.90
22194;DHT22;11262;50.308;9.270;2023-01-10T16:12:40;5.00;99.90
22194;DHT22;11262;50.308;9.270;2023-01-10T16:15:27;5.00;99.90
22194;DHT22;11262;50.308;9.270;2023-01-10T16:17:53;5.00;99.90
22194;DHT22;11262;50.308;9.270;2023-01-10T16:20:40;5.00;99.90
22194;DHT22;11262;50.308;9.270;2023-01-10T16:23:13;4.90;99.90
22194;DHT22;11262;50.308;9.270;2023-01-10T16:25:43;4.90;99.90
22194;DHT22;11262;50.308;9.270;2023-01-10T16:28:15;4.90;99.90
22194;DHT22;11262;50.308;9.270;2023-01-10T16:30:41;4.90;99.90
22194;DHT22;11262;50.308;9.270;2023-01-10T16:33:15;4.90;99.90
22194;DHT22;11262;50.308;9.270;2023-01-10T16:35:43;4.90;99.90
22194;DHT22;11262;50.308;9.270;2023-01-10T16:38:09;4.90;99.90
22194;DHT22;11262;50.308;9.270;2023-01-10T16:40:40;4.90;99.90
22194;DHT22;11262;50.308;9.270;2023-01-10T16:43:06;4.90;99.90
22194;DHT22;11262;50.308;9.270;2023-01-10T16:46:03;4.90;99.90
22194;DHT22;11262;50.308;9.270;2023-01-10T16:48:30;4.80;99.90
22194;DHT22;11262;50.308;9.270;2023-01-10T16:51:16;4.80;99.90
22194;DHT22;11262;50.308;9.270;2023-01-10T16:53:43;4.80;99.90
22194;DHT22;11262;50.308;9.270;2023-01-10T16:56:15;4.80;99.90
22194;DHT22;11262;50.308;9.270;2023-01-10T16:58:41;4.80;99.90
22194;DHT22;11262;50.308;9.270;2023-01-10T17:01:10;4.80;99.90
22194;DHT22;11262;50.308;9.270;2023-01-10T17:03:38;4.70;99.90
22194;DHT22;11262;50.308;9.270;2023-01-10T17:06:04;4.80;99.90
22194;DHT22;11262;50.308;9.270;2023-01-10T17:08:30;4.80;99.90
22194;DHT22;11262;50.308;9.270;2023-01-10T17:11:00;4.70;99.90
22194;DHT22;11262;50.308;9.270;2023-01-10T17:13:31;4.70;99.90
22194;DHT22;11262;50.308;9.270;2023-01-10T17:15:57;4.70;99.90
22194;DHT22;11262;50.308;9.270;2023-01-10T17:18:23;4.70;99.90
22194;DHT22;11262;50.308;9.270;2023-01-10T17:20:54;4.80;99.90
22194;DHT22;11262;50.308;9.270;2023-01-10T17:23:21;4.70;99.90
22194;DHT22;11262;50.308;9.270;2023-01-10T17:25:47;4.70;99.90
22194;DHT22;11262;50.308;9.270;2023-01-10T17:28:14;4.70;99.90
22194;DHT22;11262;50.308;9.270;2023-01-10T17:30:41;4.70;99.90
22194;DHT22;11262;50.308;9.270;2023-01-10T17:33:07;4.70;99.90
22194;DHT22;11262;50.308;9.270;2023-01-10T17:35:43;4.70;99.90
22194;DHT22;11262;50.308;9.270;2023-01-10T17:38:14;4.70;99.90
22194;DHT22;11262;50.308;9.270;2023-01-10T17:40:45;4.70;99.90
22194;DHT22;11262;50.308;9.270;2023-01-10T17:43:12;4.70;99.90
22194;DHT22;11262;50.308;9.270;2023-01-10T17:45:39;4.70;99.90